createdAt,value
2019-06-20T00:01:00.217Z,97450.17
2019-06-20T00:03:30.693Z,97448.69
2019-06-20T00:05:59.966Z,97446.27
2019-06-20T00:08:29.434Z,97443.13
2019-06-20T00:10:58.722Z,97450.34
2019-06-20T00:13:27.985Z,97451.50
2019-06-20T00:15:57.366Z,97452.52
2019-06-20T00:18:26.641Z,97462.09
2019-06-20T00:20:56.348Z,97457.23
2019-06-20T00:23:25.801Z,97455.10
2019-06-20T00:25:55.065Z,97458.05
2019-06-20T00:28:24.353Z,97451.92
2019-06-20T00:30:55.421Z,97445.10
2019-06-20T00:33:24.737Z,97442.67
2019-06-20T00:35:54.005Z,97447.02
2019-06-20T00:38:23.332Z,97457.38
2019-06-20T00:40:52.671Z,97472.06
2019-06-20T00:43:21.938Z,97503.92
2019-06-20T00:45:51.239Z,97528.73
2019-06-20T00:48:20.519Z,97538.83
2019-06-20T00:50:49.799Z,97556.44
2019-06-20T00:53:19.102Z,97557.67
2019-06-20T00:55:48.427Z,97569.64
2019-06-20T00:58:17.739Z,97577.45
2019-06-20T01:00:47.060Z,97573.91
2019-06-20T01:03:16.374Z,97574.56
2019-06-20T01:05:45.644Z,97591.01
2019-06-20T01:08:15.960Z,97619.83
2019-06-20T01:10:45.262Z,97660.75
2019-06-20T01:13:14.562Z,97699.77
2019-06-20T01:15:43.946Z,97750.07
2019-06-20T01:18:13.358Z,97762.08
2019-06-20T01:20:42.677Z,97751.28
2019-06-20T01:23:11.936Z,97757.20
2019-06-20T01:25:42.890Z,97764.19
2019-06-20T01:28:12.210Z,97780.40
2019-06-20T01:30:41.723Z,97767.31
2019-06-20T01:33:11.048Z,97777.18
2019-06-20T01:35:40.353Z,97783.78
2019-06-20T01:38:09.652Z,97787.02
2019-06-20T01:40:38.960Z,97789.63
2019-06-20T01:43:15.758Z,97793.09
2019-06-20T01:45:43.898Z,97792.30
2019-06-20T01:48:13.222Z,97796.98
2019-06-20T01:50:43.685Z,97794.59
2019-06-20T01:53:12.997Z,97798.37
2019-06-20T01:55:42.965Z,97805.95
2019-06-20T01:58:12.270Z,97806.04
2019-06-20T02:00:51.577Z,97806.04
2019-06-20T02:03:21.860Z,97818.42
2019-06-20T02:05:51.376Z,97819.41
2019-06-20T02:08:20.675Z,97831.56
2019-06-20T02:10:50.815Z,97836.09
2019-06-20T02:13:20.151Z,97839.23
2019-06-20T02:15:49.433Z,97830.42
2019-06-20T02:18:18.727Z,97839.62
2019-06-20T02:20:52.536Z,97837.53
2019-06-20T02:23:22.429Z,97844.97
2019-06-20T02:25:52.062Z,97833.27
2019-06-20T02:28:21.930Z,97836.09
2019-06-20T02:30:51.403Z,97836.09
2019-06-20T02:33:20.703Z,97820.85
2019-06-20T02:35:50.011Z,97817.75
2019-06-20T02:38:19.303Z,97802.70
2019-06-20T02:40:48.601Z,97793.95
2019-06-20T02:43:17.902Z,97792.17
2019-06-20T02:45:47.177Z,97787.59
2019-06-20T02:48:16.605Z,97745.72
2019-06-20T02:50:45.886Z,97729.03
2019-06-20T02:53:15.184Z,97727.84
2019-06-20T02:55:44.489Z,97727.84
2019-06-20T02:58:13.742Z,97741.85
2019-06-20T03:01:01.065Z,97748.62
2019-06-20T03:03:30.458Z,97746.30
2019-06-20T03:06:02.025Z,97746.30
2019-06-20T03:08:31.483Z,97746.02
2019-06-20T03:11:00.786Z,97744.83
2019-06-20T03:13:30.069Z,97744.42
2019-06-20T03:15:59.366Z,97735.73
2019-06-20T03:18:28.624Z,97740.38
2019-06-20T03:20:58.124Z,97735.67
2019-06-20T03:23:27.610Z,97729.82
2019-06-20T03:25:57.933Z,97734.85
2019-06-20T03:28:27.225Z,97743.46
2019-06-20T03:30:56.860Z,97740.26
2019-06-20T03:33:26.158Z,97748.48
2019-06-20T03:35:55.461Z,97753.50
2019-06-20T03:38:24.763Z,97764.42
2019-06-20T03:40:54.104Z,97767.16
2019-06-20T03:43:23.632Z,97767.27
2019-06-20T03:45:53.423Z,97767.53
2019-06-20T03:48:23.829Z,97768.34
2019-06-20T03:50:53.166Z,97770.39
2019-06-20T03:53:23.569Z,97774.11
2019-06-20T03:55:52.872Z,97768.00
2019-06-20T03:58:22.164Z,97769.48
2019-06-20T04:00:51.472Z,97768.88
2019-06-20T04:03:21.899Z,97774.45
2019-06-20T04:05:51.221Z,97764.17
2019-06-20T04:08:20.561Z,97768.20
2019-06-20T04:10:49.930Z,97762.76
2019-06-20T04:13:20.433Z,97772.28
2019-06-20T04:15:51.189Z,97766.67
2019-06-20T04:18:20.486Z,97768.41
2019-06-20T04:20:51.573Z,97766.94
2019-06-20T04:23:20.867Z,97769.52
2019-06-20T04:25:50.161Z,97778.28
2019-06-20T04:28:19.505Z,97766.46
2019-06-20T04:30:48.808Z,97760.04
2019-06-20T04:33:18.060Z,97772.75
2019-06-20T04:35:47.456Z,97774.25
2019-06-20T04:38:16.782Z,97783.27
2019-06-20T04:40:46.081Z,97784.52
2019-06-20T04:43:15.621Z,97803.78
2019-06-20T04:45:59.928Z,97793.08
2019-06-20T04:48:29.267Z,97789.11
2019-06-20T04:50:58.574Z,97794.77
2019-06-20T04:53:27.851Z,97787.36
2019-06-20T04:55:57.166Z,97789.75
2019-06-20T04:58:26.438Z,97780.17
2019-06-20T05:00:57.069Z,97785.59
2019-06-20T05:03:27.903Z,97774.83
2019-06-20T05:05:57.192Z,97764.07
2019-06-20T05:08:28.790Z,97766.07
2019-06-20T05:10:58.155Z,97767.42
2019-06-20T05:13:27.450Z,97786.11
2019-06-20T05:15:56.942Z,97780.71
2019-06-20T05:18:26.324Z,97779.61
2019-06-20T05:20:55.640Z,97774.34
2019-06-20T05:23:24.961Z,97770.00
2019-06-20T05:25:54.307Z,97772.03
2019-06-20T05:28:23.667Z,97772.49
2019-06-20T05:30:52.936Z,97771.45
2019-06-20T05:33:23.295Z,97782.52
2019-06-20T05:35:52.602Z,97772.95
2019-06-20T05:38:23.482Z,97764.62
2019-06-20T05:40:53.961Z,97764.55
2019-06-20T05:43:23.295Z,97766.54
2019-06-20T05:46:07.998Z,97769.08
2019-06-20T05:48:24.012Z,97785.70
2019-06-20T05:50:53.340Z,97807.92
2019-06-20T05:53:22.623Z,97813.98
2019-06-20T05:55:51.949Z,97823.66
2019-06-20T05:58:21.292Z,97831.82
2019-06-20T06:00:50.574Z,97840.55
2019-06-20T06:03:21.020Z,97849.30
2019-06-20T06:05:50.328Z,97844.60
2019-06-20T06:08:19.773Z,97847.08
2019-06-20T06:10:49.094Z,97847.08
2019-06-20T06:13:18.413Z,97859.37
2019-06-20T06:15:47.717Z,97869.86
2019-06-20T06:18:17.009Z,97878.92
2019-06-20T06:20:46.357Z,97885.02
2019-06-20T06:23:15.641Z,97883.20
2019-06-20T06:25:46.597Z,97877.50
2019-06-20T06:28:15.911Z,97888.18
2019-06-20T06:30:50.779Z,97896.63
2019-06-20T06:33:20.447Z,97884.70
2019-06-20T06:35:49.724Z,97871.47
2019-06-20T06:38:22.045Z,97860.50
2019-06-20T06:40:50.486Z,97857.44
2019-06-20T06:43:19.783Z,97843.49
2019-06-20T06:45:49.058Z,97838.47
2019-06-20T06:48:18.398Z,97843.83
2019-06-20T06:50:47.660Z,97855.89
2019-06-20T06:53:16.970Z,97848.94
2019-06-20T06:55:46.239Z,97846.19
2019-06-20T06:58:17.007Z,97841.11
2019-06-20T07:00:46.279Z,97841.94
2019-06-20T07:03:15.571Z,97835.02
2019-06-20T07:05:44.884Z,97831.14
2019-06-20T07:08:15.958Z,97817.56
2019-06-20T07:10:45.454Z,97812.39
2019-06-20T07:13:14.752Z,97804.63
2019-06-20T07:15:44.132Z,97798.49
2019-06-20T07:18:13.452Z,97783.14
2019-06-20T07:20:42.757Z,97782.08
2019-06-20T07:23:12.071Z,97791.70
2019-06-20T07:25:41.418Z,97776.83
2019-06-20T07:28:12.201Z,97767.66
2019-06-20T07:30:41.488Z,97751.63
2019-06-20T07:33:12.624Z,97724.97
2019-06-20T07:35:44.125Z,97726.53
2019-06-20T07:38:15.969Z,97747.59
2019-06-20T07:40:46.913Z,97757.84
2019-06-20T07:43:16.185Z,97753.62
2019-06-20T07:46:01.540Z,97756.73
2019-06-20T07:48:17.617Z,97778.09
2019-06-20T07:50:47.488Z,97794.02
2019-06-20T07:53:17.829Z,97800.36
2019-06-20T07:55:47.103Z,97807.86
2019-06-20T07:58:17.721Z,97821.30
2019-06-20T08:00:47.085Z,97823.66
2019-06-20T08:03:16.379Z,97811.78
2019-06-20T08:05:45.727Z,97804.80
2019-06-20T08:08:15.029Z,97821.97
2019-06-20T08:10:44.336Z,97829.64
2019-06-20T08:13:13.690Z,97831.58
2019-06-20T08:15:44.212Z,97818.63
2019-06-20T08:18:13.521Z,97832.88
2019-06-20T08:20:42.790Z,97829.56
2019-06-20T08:23:12.194Z,97828.13
2019-06-20T08:25:41.481Z,97827.22
2019-06-20T08:28:10.809Z,97826.91
2019-06-20T08:30:41.564Z,97817.89
2019-06-20T08:33:13.163Z,97809.19
2019-06-20T08:35:42.548Z,97813.70
2019-06-20T08:38:12.961Z,97800.76
2019-06-20T08:40:42.297Z,97794.19
2019-06-20T08:43:11.817Z,97796.00
2019-06-20T08:45:48.660Z,97797.54
2019-06-20T08:48:19.670Z,97803.39
2019-06-20T08:50:48.940Z,97814.31
2019-06-20T08:53:19.221Z,97807.94
2019-06-20T08:55:50.169Z,97821.16
2019-06-20T08:58:19.458Z,97823.77
2019-06-20T09:00:48.897Z,97822.58
2019-06-20T09:03:29.474Z,97831.60
2019-06-20T09:05:59.738Z,97827.98
2019-06-20T09:08:29.133Z,97835.66
2019-06-20T09:10:59.548Z,97833.46
2019-06-20T09:13:29.594Z,97833.30
2019-06-20T09:16:00.924Z,97840.35
2019-06-20T09:18:30.538Z,97839.02
2019-06-20T09:21:00.270Z,97834.04
2019-06-20T09:23:29.732Z,97843.37
2019-06-20T09:25:59.640Z,97848.05
2019-06-20T09:28:29.026Z,97855.23
2019-06-20T09:30:59.448Z,97848.17
2019-06-20T09:33:28.710Z,97854.68
2019-06-20T09:35:59.563Z,97859.63
2019-06-20T09:38:33.380Z,97864.00
2019-06-20T09:41:04.207Z,97858.70
2019-06-20T09:43:34.696Z,97857.68
2019-06-20T09:46:04.939Z,97858.56
2019-06-20T09:48:34.342Z,97863.94
2019-06-20T09:51:03.625Z,97861.69
2019-06-20T09:53:32.928Z,97865.10
2019-06-20T09:56:02.404Z,97870.73
2019-06-20T09:58:32.458Z,97867.44
2019-06-20T10:01:01.750Z,97873.17
2019-06-20T10:03:31.295Z,97876.78
2019-06-20T10:06:00.682Z,97869.56
2019-06-20T10:08:29.965Z,97881.77
2019-06-20T10:10:59.280Z,97890.97
2019-06-20T10:13:32.383Z,97880.43
2019-06-20T10:16:00.011Z,97890.24
2019-06-20T10:18:29.378Z,97876.95
2019-06-20T10:20:58.687Z,97876.30
2019-06-20T10:23:27.964Z,97877.24
2019-06-20T10:25:58.281Z,97881.03
2019-06-20T10:28:29.359Z,97869.35
2019-06-20T10:30:59.902Z,97873.24
2019-06-20T10:33:29.462Z,97881.34
2019-06-20T10:36:00.299Z,97867.28
2019-06-20T10:38:29.995Z,97870.86
2019-06-20T10:41:15.376Z,97863.86
2019-06-20T10:43:45.817Z,97871.17
2019-06-20T10:46:16.558Z,97879.28
2019-06-20T10:48:47.994Z,97872.11
2019-06-20T10:51:36.339Z,97867.48
2019-06-20T10:54:06.295Z,97871.04
2019-06-20T10:56:35.578Z,97870.95
2019-06-20T10:59:05.100Z,97872.17
2019-06-20T11:01:34.427Z,97872.27
2019-06-20T11:04:03.771Z,97880.77
2019-06-20T11:06:36.520Z,97875.22
2019-06-20T11:09:09.438Z,97874.87
2019-06-20T11:11:40.158Z,97866.25
2019-06-20T11:14:10.339Z,97870.41
2019-06-20T11:16:40.480Z,97876.82
2019-06-20T11:19:10.684Z,97866.31
2019-06-20T11:21:41.582Z,97868.84
2019-06-20T11:24:10.993Z,97860.66
2019-06-20T11:26:43.071Z,97859.13
2019-06-20T11:29:12.493Z,97859.29
2019-06-20T11:31:45.948Z,97848.88
2019-06-20T11:34:12.848Z,97847.84
2019-06-20T11:36:45.097Z,97849.27
2019-06-20T11:39:14.511Z,97850.80
2019-06-20T11:41:43.822Z,97842.77
2019-06-20T11:44:13.107Z,97848.27
2019-06-20T11:46:42.669Z,97841.92
2019-06-20T11:49:11.975Z,97835.03
2019-06-20T11:51:41.904Z,97830.17
2019-06-20T11:54:11.337Z,97823.45
2019-06-20T11:56:40.864Z,97825.81
2019-06-20T11:59:10.181Z,97830.17
2019-06-20T12:01:40.071Z,97833.55
2019-06-20T12:04:16.056Z,97834.32
2019-06-20T12:06:47.159Z,97836.02
2019-06-20T12:09:16.561Z,97832.39
2019-06-20T12:11:46.758Z,97833.14
2019-06-20T12:14:16.218Z,97823.70
2019-06-20T12:16:46.443Z,97820.16
2019-06-20T12:19:15.841Z,97818.41
2019-06-20T12:21:45.130Z,97819.70
2019-06-20T12:24:14.396Z,97815.63
2019-06-20T12:26:44.403Z,97818.88
2019-06-20T12:29:14.859Z,97816.06
2019-06-20T12:31:45.570Z,97815.89
2019-06-20T12:34:15.218Z,97816.96
2019-06-20T12:36:44.491Z,97806.69
2019-06-20T12:39:13.794Z,97801.66
2019-06-20T12:41:43.199Z,97805.84
2019-06-20T12:44:12.464Z,97800.82
2019-06-20T12:46:44.797Z,97802.55
2019-06-20T12:49:14.140Z,97801.27
2019-06-20T12:51:44.773Z,97802.42
2019-06-20T12:54:14.114Z,97798.62
2019-06-20T12:56:44.033Z,97803.88
2019-06-20T12:59:13.391Z,97786.28
2019-06-20T13:01:45.691Z,97787.56
2019-06-20T13:04:13.692Z,97783.08
2019-06-20T13:06:44.355Z,97784.45
2019-06-20T13:09:13.655Z,97778.02
2019-06-20T13:11:42.977Z,97779.38
2019-06-20T13:14:12.278Z,97768.27
2019-06-20T13:16:43.095Z,97773.30
2019-06-20T13:19:12.378Z,97777.19
2019-06-20T13:21:42.053Z,97769.07
2019-06-20T13:24:11.481Z,97759.20
2019-06-20T13:26:42.333Z,97767.39
2019-06-20T13:29:11.751Z,97749.20
2019-06-20T13:31:56.474Z,97746.50
2019-06-20T13:34:12.369Z,97748.83
2019-06-20T13:36:43.198Z,97736.87
2019-06-20T13:39:12.520Z,97737.13
2019-06-20T13:41:43.088Z,97731.27
2019-06-20T13:44:14.864Z,97736.89
2019-06-20T13:46:46.460Z,97736.87
2019-06-20T13:49:15.876Z,97738.81
2019-06-20T13:51:45.889Z,97741.68
2019-06-20T13:54:15.267Z,97747.30
2019-06-20T13:56:45.673Z,97752.92
2019-06-20T13:59:14.943Z,97747.48
2019-06-20T14:01:46.133Z,97742.19
2019-06-20T14:04:15.266Z,97744.23
2019-06-20T14:06:45.494Z,97751.50
2019-06-20T14:09:14.926Z,97762.34
2019-06-20T14:11:45.406Z,97761.05
2019-06-20T14:14:14.715Z,97757.92
2019-06-20T14:16:45.770Z,97759.31
2019-06-20T14:19:15.076Z,97762.83
2019-06-20T14:21:45.349Z,97767.63
2019-06-20T14:24:14.898Z,97786.85
2019-06-20T14:26:46.279Z,97789.14
2019-06-20T14:29:15.503Z,97799.64
2019-06-20T14:31:45.520Z,97808.45
2019-06-20T14:34:14.976Z,97807.27
2019-06-20T14:36:44.748Z,97813.05
2019-06-20T14:39:15.596Z,97801.23
2019-06-20T14:41:44.872Z,97795.02
2019-06-20T14:44:14.170Z,97797.14
2019-06-20T14:46:43.434Z,97814.14
2019-06-20T14:49:12.728Z,97827.53
2019-06-20T14:51:42.022Z,97838.04
2019-06-20T14:54:12.397Z,97840.85
2019-06-20T14:56:41.734Z,97840.91
2019-06-20T14:59:11.000Z,97846.52
2019-06-20T15:01:40.293Z,97851.53
2019-06-20T15:04:09.558Z,97865.59
2019-06-20T15:06:38.841Z,97862.12
2019-06-20T15:09:10.987Z,97853.77
2019-06-20T15:11:40.289Z,97858.30
2019-06-20T15:14:09.556Z,97859.05
2019-06-20T15:16:38.855Z,97853.91
2019-06-20T15:19:08.184Z,97844.97
2019-06-20T15:21:37.570Z,97851.14
2019-06-20T15:24:06.871Z,97847.04
2019-06-20T15:26:36.182Z,97835.16
2019-06-20T15:29:07.286Z,97831.16
2019-06-20T15:31:36.589Z,97818.02
2019-06-20T15:34:06.983Z,97814.19
2019-06-20T15:36:36.271Z,97808.30
2019-06-20T15:39:07.197Z,97814.84
2019-06-20T15:41:36.472Z,97809.88
2019-06-20T15:44:05.977Z,97815.04
2019-06-20T15:46:35.261Z,97822.90
2019-06-20T15:49:15.761Z,97830.19
2019-06-20T15:51:35.570Z,97838.99
2019-06-20T15:54:06.072Z,97853.02
2019-06-20T15:56:35.376Z,97853.54
2019-06-20T15:59:04.728Z,97857.40
2019-06-20T16:01:33.991Z,97865.11
2019-06-20T16:04:03.290Z,97868.31
2019-06-20T16:06:32.620Z,97867.88
2019-06-20T16:09:01.916Z,97868.63
2019-06-20T16:11:31.213Z,97867.88
2019-06-20T16:14:00.502Z,97866.05
2019-06-20T16:16:29.877Z,97866.45
2019-06-20T16:18:59.212Z,97868.66
2019-06-20T16:21:28.512Z,97866.00
2019-06-20T16:23:57.954Z,97871.95
2019-06-20T16:26:27.262Z,97868.48
2019-06-20T16:28:56.555Z,97864.16
2019-06-20T16:31:34.661Z,97859.68
2019-06-20T16:34:03.970Z,97857.73
2019-06-20T16:36:33.658Z,97857.17
2019-06-20T16:39:02.924Z,97846.09
2019-06-20T16:41:32.249Z,97853.95
2019-06-20T16:44:01.548Z,97854.59
2019-06-20T16:46:30.883Z,97856.16
2019-06-20T16:49:01.980Z,97855.16
2019-06-20T16:51:31.323Z,97857.18
2019-06-20T16:54:01.604Z,97858.67
2019-06-20T16:56:47.731Z,97861.86
2019-06-20T16:59:17.015Z,97866.69
2019-06-20T17:01:46.278Z,97862.27
2019-06-20T17:04:15.551Z,97865.08
2019-06-20T17:06:44.814Z,97863.01
2019-06-20T17:09:14.157Z,97868.17
2019-06-20T17:11:51.045Z,97866.87
2019-06-20T17:14:28.764Z,97864.44
2019-06-20T17:16:58.036Z,97872.06
2019-06-20T17:19:27.312Z,97874.17
2019-06-20T17:21:56.632Z,97868.91
2019-06-20T17:24:25.880Z,97875.92
2019-06-20T17:26:56.233Z,97877.16
2019-06-20T17:29:25.536Z,97879.48
2019-06-20T17:31:57.418Z,97883.70
2019-06-20T17:34:25.950Z,97882.59
2019-06-20T17:36:55.328Z,97883.68
2019-06-20T17:39:24.812Z,97887.34
2019-06-20T17:41:55.402Z,97887.00
2019-06-20T17:44:27.519Z,97887.38
2019-06-20T17:46:57.060Z,97895.73
2019-06-20T17:49:26.764Z,97893.94
2019-06-20T17:51:56.067Z,97895.95
2019-06-20T17:54:25.424Z,97886.73
2019-06-20T17:56:55.825Z,97895.88
2019-06-20T17:59:25.235Z,97907.00
2019-06-20T18:01:54.518Z,97905.23
2019-06-20T18:04:26.694Z,97908.09
2019-06-20T18:06:54.796Z,97913.05
2019-06-20T18:09:24.240Z,97915.81
2019-06-20T18:11:53.530Z,97912.02
2019-06-20T18:14:23.977Z,97912.13
2019-06-20T18:16:53.278Z,97913.13
2019-06-20T18:19:29.709Z,97920.91
2019-06-20T18:21:58.201Z,97928.19
2019-06-20T18:24:27.503Z,97932.64
2019-06-20T18:26:56.843Z,97928.11
2019-06-20T18:29:26.141Z,97931.94
2019-06-20T18:31:55.439Z,97928.60
2019-06-20T18:34:29.983Z,97929.13
2019-06-20T18:36:55.749Z,97930.84
2019-06-20T18:39:25.005Z,97940.64
2019-06-20T18:41:55.254Z,97936.67
2019-06-20T18:44:24.744Z,97935.83
2019-06-20T18:46:56.345Z,97937.05
2019-06-20T18:49:25.650Z,97934.00
2019-06-20T18:51:54.909Z,97936.30
2019-06-20T18:54:24.414Z,97929.85
2019-06-20T18:56:54.867Z,97929.88
2019-06-20T18:59:24.199Z,97935.23
2019-06-20T19:01:56.172Z,97934.39
2019-06-20T19:04:25.494Z,97941.97
2019-06-20T19:06:54.791Z,97944.55
2019-06-20T19:09:24.085Z,97945.43
2019-06-20T19:11:53.525Z,97938.27
2019-06-20T19:14:22.835Z,97949.23
2019-06-20T19:16:52.861Z,97944.93
2019-06-20T19:19:22.180Z,97957.55
2019-06-20T19:21:52.276Z,97954.64
2019-06-20T19:24:21.550Z,97960.32
2019-06-20T19:26:52.633Z,97957.17
2019-06-20T19:29:23.238Z,97967.43
2019-06-20T19:31:56.392Z,97956.77
2019-06-20T19:34:26.018Z,97956.22
2019-06-20T19:36:55.362Z,97957.73
2019-06-20T19:39:28.025Z,97959.30
2019-06-20T19:42:20.411Z,97956.56
2019-06-20T19:44:47.881Z,97957.31
2019-06-20T19:47:20.894Z,97960.52
2019-06-20T19:49:55.652Z,97970.06
2019-06-20T19:52:28.203Z,97977.81
2019-06-20T19:55:01.961Z,97981.78
2019-06-20T19:57:34.745Z,97973.72
2019-06-20T20:00:18.544Z,97980.25
2019-06-20T20:02:51.249Z,97970.85
2019-06-20T20:05:20.681Z,97976.72
2019-06-20T20:07:50.166Z,97977.59
2019-06-20T20:10:28.314Z,97990.60
2019-06-20T20:13:00.175Z,97991.74
2019-06-20T20:15:29.576Z,97996.73
2019-06-20T20:17:58.879Z,97994.98
2019-06-20T20:20:28.468Z,97999.11
2019-06-20T20:23:07.962Z,97996.16
2019-06-20T20:25:37.789Z,97991.94
2019-06-20T20:28:07.082Z,97994.34
2019-06-20T20:30:36.357Z,97997.19
2019-06-20T20:33:05.993Z,97990.68
2019-06-20T20:35:36.133Z,97995.81
2019-06-20T20:38:05.992Z,97995.58
2019-06-20T20:40:35.246Z,98000.53
2019-06-20T20:43:04.661Z,98007.83
2019-06-20T20:45:33.994Z,98007.64
2019-06-20T20:48:03.272Z,98004.11
2019-06-20T20:50:32.630Z,98005.24
2019-06-20T20:53:01.901Z,98003.77
2019-06-20T20:55:31.198Z,98008.34
2019-06-20T20:58:00.487Z,98011.20
2019-06-20T21:00:35.124Z,98017.20
2019-06-20T21:03:07.342Z,98019.32
2019-06-20T21:05:50.665Z,98021.15
2019-06-20T21:08:08.548Z,98016.23
2019-06-20T21:10:37.860Z,98015.41
2019-06-20T21:13:07.164Z,98028.21
2019-06-20T21:15:36.468Z,98032.63
2019-06-20T21:18:05.758Z,98034.99
2019-06-20T21:20:35.026Z,98039.73
2019-06-20T21:23:04.314Z,98046.52
2019-06-20T21:25:33.576Z,98041.17
2019-06-20T21:28:02.897Z,98046.90
2019-06-20T21:30:32.501Z,98045.31
2019-06-20T21:33:03.816Z,98045.46
2019-06-20T21:35:33.507Z,98053.61
2019-06-20T21:38:03.598Z,98052.84
2019-06-20T21:40:32.877Z,98051.27
2019-06-20T21:43:02.141Z,98061.13
2019-06-20T21:45:33.332Z,98052.65
2019-06-20T21:48:02.623Z,98062.30
2019-06-20T21:50:32.835Z,98063.13
2019-06-20T21:53:02.111Z,98065.69
2019-06-20T21:55:31.386Z,98070.88
2019-06-20T21:58:00.755Z,98065.11
2019-06-20T22:00:39.066Z,98065.63
2019-06-20T22:03:09.336Z,98060.89
2019-06-20T22:05:40.246Z,98071.15
2019-06-20T22:08:10.002Z,98073.51
2019-06-20T22:10:39.467Z,98076.66
2019-06-20T22:13:08.828Z,98078.01
2019-06-20T22:15:39.360Z,98079.05
2019-06-20T22:18:09.027Z,98079.05
2019-06-20T22:20:38.870Z,98079.84
2019-06-20T22:23:08.142Z,98081.65
2019-06-20T22:25:38.223Z,98083.03
2019-06-20T22:28:14.760Z,98086.95
2019-06-20T22:30:47.999Z,98085.55
2019-06-20T22:33:17.260Z,98081.41
2019-06-20T22:35:46.656Z,98081.60
2019-06-20T22:38:15.902Z,98080.97
2019-06-20T22:40:45.496Z,98095.57
2019-06-20T22:43:14.807Z,98092.39
2019-06-20T22:45:44.225Z,98096.34
2019-06-20T22:48:13.976Z,98087.86
2019-06-20T22:50:43.480Z,98079.77
2019-06-20T22:53:12.799Z,98085.25
2019-06-20T22:55:42.132Z,98082.92
2019-06-20T22:58:12.631Z,98073.11
2019-06-20T23:00:41.943Z,98075.30
2019-06-20T23:03:11.286Z,98076.28
2019-06-20T23:05:40.683Z,98081.02
2019-06-20T23:08:22.746Z,98082.02
2019-06-20T23:10:52.043Z,98090.11
2019-06-20T23:13:21.509Z,98083.39
2019-06-20T23:15:50.788Z,98079.48
2019-06-20T23:18:20.090Z,98086.00
2019-06-20T23:21:03.993Z,98081.27
2019-06-20T23:23:20.469Z,98080.09
2019-06-20T23:25:52.278Z,98085.80
2019-06-20T23:28:23.074Z,98086.20
2019-06-20T23:30:52.458Z,98091.55
2019-06-20T23:33:21.727Z,98091.55
2019-06-20T23:35:51.019Z,98101.62
2019-06-20T23:38:20.321Z,98104.19
2019-06-20T23:40:49.617Z,98103.59
2019-06-20T23:43:18.925Z,98104.38
2019-06-20T23:45:48.264Z,98103.00
2019-06-20T23:48:17.482Z,98103.00
2019-06-20T23:50:46.890Z,98103.97
2019-06-20T23:53:20.901Z,98100.61
2019-06-20T23:55:50.211Z,98103.19
2019-06-20T23:58:19.490Z,98102.20
